Time;durP1;ratioP1;P1;durP2;ratioP2;P2;SDS_P1;SDS_P2;PMS_P1;PMS_P2;Temp;Humidity;BMP_temperature;BMP_pressure;BME280_temperature;BME280_humidity;BME280_pressure;Samples;Min_cycle;Max_cycle;Signal;HPM_P1;HPM_P2
2021/12/22 00:00:06;;;;;;;31.23;19.33;;;3.20;55.00;;;;;;5037767;28;20618;-86
2021/12/22 00:02:34;;;;;;;28.03;19.63;;;3.30;56.90;;;;;;5039445;28;20245;-92
2021/12/22 00:05:00;;;;;;;27.83;20.07;;;3.30;56.50;;;;;;5046273;28;20201;-83
2021/12/22 00:07:25;;;;;;;27.90;19.60;;;3.30;58.20;;;;;;5038238;28;20181;-84
2021/12/22 00:09:51;;;;;;;26.10;18.00;;;3.20;60.40;;;;;;5044662;28;20263;-84
2021/12/22 00:12:17;;;;;;;27.47;18.50;;;3.20;59.60;;;;;;5039895;28;20542;-84
2021/12/22 00:14:42;;;;;;;25.53;17.83;;;3.30;60.70;;;;;;5051255;28;20693;-82
2021/12/22 00:17:08;;;;;;;40.17;18.37;;;3.20;59.70;;;;;;5047273;28;20173;-92
2021/12/22 00:19:45;;;;;;;24.13;17.67;;;3.20;60.60;;;;;;5062641;28;20192;-93
2021/12/22 00:22:11;;;;;;;24.17;16.47;;;3.20;59.50;;;;;;5049940;28;20169;-93
2021/12/22 00:24:37;;;;;;;27.00;16.37;;;3.20;59.30;;;;;;5045847;28;20174;-92
2021/12/22 00:27:03;;;;;;;24.77;15.77;;;3.20;58.00;;;;;;5048249;28;20185;-92
2021/12/22 00:29:35;;;;;;;25.20;15.60;;;3.10;56.30;;;;;;5048137;28;20256;-92
2021/12/22 00:32:11;;;;;;;23.77;15.40;;;3.10;53.60;;;;;;5047235;28;20169;-93
2021/12/22 00:34:49;;;;;;;23.60;14.70;;;3.20;51.80;;;;;;5070280;28;20181;-89
2021/12/22 00:37:21;;;;;;;18.53;13.70;;;3.20;46.30;;;;;;5059299;28;20145;-84
2021/12/22 00:39:50;;;;;;;20.07;13.43;;;3.20;41.50;;;;;;5059075;28;20162;-83
2021/12/22 00:42:20;;;;;;;22.13;13.40;;;3.20;41.50;;;;;;5074652;28;20213;-83
2021/12/22 00:45:08;;;;;;;21.17;13.20;;;3.20;39.40;;;;;;5052941;28;20173;-92
2021/12/22 00:47:53;;;;;;;18.63;11.93;;;3.10;35.10;;;;;;5053290;28;20219;-89
2021/12/22 00:50:18;;;;;;;17.77;11.53;;;3.10;29.70;;;;;;5058424;28;20178;-88
2021/12/22 00:56:08;;;;;;;19.33;11.57;;;2.90;29.80;;;;;;5041302;28;20177;-92
2021/12/22 00:58:34;;;;;;;20.13;11.47;;;2.80;32.60;;;;;;5044360;28;20169;-92
2021/12/22 01:01:00;;;;;;;16.03;11.57;;;2.80;37.40;;;;;;5044814;28;20176;-92
2021/12/22 01:03:27;;;;;;;16.43;11.00;;;2.70;37.70;;;;;;5044611;28;20196;-87
2021/12/22 01:05:55;;;;;;;16.30;11.53;;;2.80;38.50;;;;;;5048727;28;20173;-91
2021/12/22 01:08:20;;;;;;;18.23;10.97;;;2.80;38.30;;;;;;5053103;28;20150;-83
2021/12/22 01:10:52;;;;;;;14.77;10.33;;;2.80;36.90;;;;;;5041590;28;20521;-87
2021/12/22 01:13:19;;;;;;;17.43;11.80;;;2.70;39.40;;;;;;5047623;28;20208;-83
2021/12/22 01:15:48;;;;;;;17.17;11.13;;;2.80;39.10;;;;;;5053372;28;20186;-84
2021/12/22 01:18:29;;;;;;;14.00;10.40;;;2.90;32.80;;;;;;5048119;28;20221;-83
2021/12/22 01:24:33;;;;;;;12.17;8.63;;;2.90;27.20;;;;;;5035330;28;20196;-85
2021/12/22 01:27:08;;;;;;;14.03;9.43;;;2.80;26.20;;;;;;5035219;28;20178;-90
2021/12/22 01:29:37;;;;;;;14.00;9.57;;;2.90;23.40;;;;;;5036744;28;20204;-87
2021/12/22 01:32:06;;;;;;;11.90;8.97;;;3.00;18.70;;;;;;5040307;28;20277;-88
2021/12/22 01:34:31;;;;;;;12.60;8.97;;;2.90;17.60;;;;;;5041520;28;20224;-83
2021/12/22 01:36:57;;;;;;;13.53;9.60;;;2.90;19.10;;;;;;5032841;28;20646;-86
2021/12/22 01:39:24;;;;;;;14.07;9.10;;;2.60;21.90;;;;;;5038029;28;20177;-83
2021/12/22 01:41:50;;;;;;;12.97;8.93;;;2.50;28.80;;;;;;5047053;28;20744;-91
2021/12/22 01:44:31;;;;;;;18.47;9.20;;;2.60;29.20;;;;;;5052272;28;20154;-83
2021/12/22 01:49:50;;;;;;;13.77;9.17;;;2.60;23.40;;;;;;5043788;28;20172;-82
2021/12/22 01:52:21;;;;;;;13.73;8.80;;;2.30;31.10;;;;;;5036025;28;20599;-83
2021/12/22 01:55:13;;;;;;;14.97;9.20;;;2.20;37.40;;;;;;5057151;28;20189;-87
2021/12/22 01:57:48;;;;;;;11.77;8.97;;;2.10;42.80;;;;;;5057341;28;20177;-82
2021/12/22 02:00:18;;;;;;;18.27;9.80;;;1.90;48.00;;;;;;5054767;28;20629;-84
2021/12/22 02:02:47;;;;;;;14.57;8.83;;;2.00;49.60;;;;;;5052957;28;20209;-81
2021/12/22 02:05:17;;;;;;;13.13;8.40;;;2.10;50.30;;;;;;5056386;28;20177;-81
2021/12/22 02:07:49;;;;;;;15.23;8.73;;;2.10;48.70;;;;;;5050853;28;20204;-81
2021/12/22 02:10:34;;;;;;;13.33;8.30;;;2.10;47.70;;;;;;5041497;28;20173;-86
2021/12/22 02:13:02;;;;;;;11.07;8.00;;;2.10;46.10;;;;;;5034635;28;20196;-84
2021/12/22 02:15:33;;;;;;;14.67;8.50;;;2.10;45.30;;;;;;5038157;28;20189;-84
2021/12/22 02:18:03;;;;;;;13.97;8.67;;;2.10;41.30;;;;;;5036754;28;20186;-83
2021/12/22 02:20:29;;;;;;;15.30;8.70;;;2.30;37.60;;;;;;5036220;28;20268;-85
2021/12/22 02:22:56;;;;;;;15.23;8.67;;;2.50;30.40;;;;;;5033424;28;20279;-84
2021/12/22 02:25:31;;;;;;;13.47;8.57;;;2.60;26.30;;;;;;5034212;28;20196;-84
2021/12/22 02:27:57;;;;;;;14.97;8.60;;;2.60;25.20;;;;;;5033958;28;20189;-84
2021/12/22 02:30:28;;;;;;;15.30;9.20;;;2.60;23.50;;;;;;5036861;28;20172;-90
2021/12/22 02:35:41;;;;;;;14.23;8.83;;;2.80;12.30;;;;;;5050466;28;20214;-84
2021/12/22 02:38:13;;;;;;;14.17;8.30;;;2.80;8.60;;;;;;5059303;28;20241;-83
2021/12/22 02:40:40;;;;;;;14.97;9.20;;;2.80;7.60;;;;;;5060650;28;20161;-85
2021/12/22 02:43:06;;;;;;;14.60;8.97;;;2.80;4.90;;;;;;5060704;28;20241;-86
2021/12/22 02:45:36;;;;;;;13.73;8.27;;;2.80;2.00;;;;;;5054312;28;20190;-81
2021/12/22 02:48:11;;;;;;;13.57;8.67;;;2.80;3.70;;;;;;5045066;28;20201;-81
2021/12/22 02:51:30;;;;;;;15.83;9.30;;;2.70;1.50;;;;;;5040532;28;20527;-87
2021/12/22 02:56:35;;;;;;;12.23;8.10;;;2.70;7.90;;;;;;5037835;28;20196;-84
2021/12/22 02:59:51;;;;;;;13.50;8.63;;;2.70;3.70;;;;;;5037428;28;20575;-84
2021/12/22 03:02:30;;;;;;;11.73;8.00;;;2.80;5.90;;;;;;5028451;28;20189;-87
2021/12/22 03:04:51;;;;;;;11.97;8.20;;;2.80;3.80;;;;;;5034598;28;20178;-83
2021/12/22 03:07:18;;;;;;;16.20;9.40;;;2.80;2.80;;;;;;5050094;28;20217;-84
2021/12/22 03:09:45;;;;;;;12.37;7.97;;;2.80;4.60;;;;;;5055736;28;20200;-82
2021/12/22 03:12:14;;;;;;;13.77;8.87;;;2.70;4.00;;;;;;5044847;28;20173;-84
2021/12/22 03:14:41;;;;;;;16.47;8.10;;;2.80;4.30;;;;;;5041588;28;20194;-81
2021/12/22 03:17:09;;;;;;;13.70;9.03;;;2.80;4.00;;;;;;5048465;28;20158;-81
2021/12/22 03:19:36;;;;;;;13.77;8.87;;;2.70;11.90;;;;;;5051754;28;20176;-82
2021/12/22 03:22:06;;;;;;;15.90;8.90;;;2.70;15.80;;;;;;5058328;28;20181;-82
2021/12/22 03:24:33;;;;;;;11.40;8.77;;;2.70;18.60;;;;;;5059797;28;20178;-84
2021/12/22 03:27:49;;;;;;;13.03;7.90;;;2.70;20.10;;;;;;5060669;28;20190;-81
2021/12/22 03:37:01;;;;;;;12.10;8.70;;;2.70;20.80;;;;;;5051992;28;20157;-81
2021/12/22 03:39:32;;;;;;;12.90;8.30;;;2.70;19.60;;;;;;5054879;28;20249;-81
2021/12/22 03:42:03;;;;;;;13.30;8.33;;;2.60;20.90;;;;;;5050810;28;20520;-81
2021/12/22 03:47:52;;;;;;;13.10;8.10;;;2.80;18.60;;;;;;5056083;28;20414;-89
2021/12/22 03:50:18;;;;;;;13.43;8.83;;;2.80;16.70;;;;;;5041061;28;20177;-91
2021/12/22 03:52:45;;;;;;;14.73;9.03;;;2.70;15.80;;;;;;5036622;28;20190;-85
2021/12/22 03:58:33;;;;;;;14.93;8.80;;;2.70;19.10;;;;;;5050588;28;20165;-92
2021/12/22 04:01:11;;;;;;;13.03;8.13;;;2.70;20.20;;;;;;5055502;28;20186;-86
2021/12/22 04:03:38;;;;;;;13.43;8.57;;;2.80;21.20;;;;;;5049168;28;20172;-82
2021/12/22 04:06:05;;;;;;;13.83;9.17;;;2.90;19.50;;;;;;5052081;28;20185;-82
2021/12/22 04:08:31;;;;;;;13.50;9.53;;;3.00;15.30;;;;;;5051911;28;20172;-80
2021/12/22 04:10:57;;;;;;;16.23;9.43;;;3.00;13.00;;;;;;5042682;28;20268;-81
2021/12/22 04:13:23;;;;;;;13.23;9.07;;;3.10;9.60;;;;;;5040937;28;20197;-81
2021/12/22 04:15:50;;;;;;;15.87;10.17;;;3.00;7.30;;;;;;5039031;28;20268;-81
2021/12/22 04:18:18;;;;;;;17.20;9.97;;;3.10;8.40;;;;;;5040351;28;20224;-83
2021/12/22 04:20:50;;;;;;;12.67;9.37;;;3.00;7.60;;;;;;5051900;28;20201;-84
2021/12/22 04:23:19;;;;;;;13.50;8.83;;;3.00;10.20;;;;;;5048806;28;20686;-81
2021/12/22 04:25:46;;;;;;;14.47;9.37;;;3.00;14.30;;;;;;5039974;28;20197;-83
2021/12/22 04:28:15;;;;;;;12.07;9.10;;;3.00;16.10;;;;;;5037663;28;20197;-81
2021/12/22 04:30:49;;;;;;;14.50;8.80;;;3.00;17.60;;;;;;5045379;28;20170;-92
2021/12/22 04:33:21;;;;;;;11.37;8.40;;;3.00;16.60;;;;;;5037459;28;20173;-90
2021/12/22 04:35:49;;;;;;;13.57;9.40;;;3.00;16.10;;;;;;5042125;28;20241;-91
2021/12/22 04:38:20;;;;;;;15.13;9.27;;;2.80;19.50;;;;;;5067187;28;20172;-88
2021/12/22 04:40:47;;;;;;;13.37;8.87;;;2.80;21.90;;;;;;5054123;28;20189;-87
2021/12/22 04:43:13;;;;;;;12.43;8.53;;;2.90;22.00;;;;;;5053918;28;20162;-80
2021/12/22 04:45:42;;;;;;;11.83;8.07;;;2.80;21.90;;;;;;5052271;28;20184;-81
2021/12/22 04:48:08;;;;;;;13.27;8.77;;;3.00;19.80;;;;;;5053647;28;20209;-79
2021/12/22 04:50:35;;;;;;;14.57;9.20;;;2.90;18.00;;;;;;5049060;28;20177;-84
2021/12/22 04:53:21;;;;;;;15.53;9.83;;;2.90;21.40;;;;;;5050825;28;20303;-82
2021/12/22 04:55:48;;;;;;;17.70;9.90;;;2.80;21.40;;;;;;5053796;28;20169;-83
2021/12/22 04:58:16;;;;;;;17.27;9.90;;;2.60;25.20;;;;;;5054126;28;20172;-81
2021/12/22 05:01:09;;;;;;;21.20;10.10;;;2.60;29.10;;;;;;5037828;28;20174;-83
2021/12/22 05:03:41;;;;;;;17.77;11.40;;;2.60;36.50;;;;;;5033859;28;20189;-84
2021/12/22 05:06:09;;;;;;;16.10;12.37;;;2.60;38.70;;;;;;5034929;28;20660;-91
2021/12/22 05:08:35;;;;;;;18.60;13.53;;;2.40;41.00;;;;;;5037963;28;20173;-86
2021/12/22 05:11:01;;;;;;;21.57;15.53;;;2.30;48.00;;;;;;5037229;28;20173;-90
2021/12/22 05:13:29;;;;;;;21.40;16.17;;;2.10;56.40;;;;;;5038396;28;20274;-89
2021/12/22 05:15:55;;;;;;;26.17;19.93;;;1.90;60.70;;;;;;5044305;28;20176;-83
2021/12/22 05:18:24;;;;;;;25.70;19.67;;;1.80;68.30;;;;;;5039352;28;20181;-85
2021/12/22 05:20:52;;;;;;;27.67;19.27;;;1.60;69.90;;;;;;5036507;28;20189;-92
2021/12/22 05:23:20;;;;;;;24.97;19.67;;;1.60;74.00;;;;;;5054377;28;20165;-87
2021/12/22 05:25:46;;;;;;;25.23;20.83;;;1.60;73.50;;;;;;5053374;28;20283;-84
2021/12/22 05:28:15;;;;;;;29.20;22.03;;;1.40;75.40;;;;;;5041462;28;20230;-91
2021/12/22 05:30:46;;;;;;;30.23;22.37;;;1.30;78.70;;;;;;5036286;28;20161;-83
2021/12/22 05:33:13;;;;;;;28.47;22.40;;;1.30;81.40;;;;;;5036291;28;20200;-89
2021/12/22 05:35:39;;;;;;;28.40;22.93;;;1.30;82.80;;;;;;5035748;28;20186;-84
2021/12/22 05:38:05;;;;;;;34.13;23.27;;;1.40;82.70;;;;;;5052528;28;20233;-81
2021/12/22 05:40:30;;;;;;;28.37;22.47;;;1.50;81.40;;;;;;5048429;28;20188;-81
2021/12/22 05:42:59;;;;;;;27.03;21.87;;;1.50;80.40;;;;;;5040356;28;20224;-82
2021/12/22 05:45:30;;;;;;;31.77;22.30;;;1.50;81.20;;;;;;5037047;28;20177;-86
2021/12/22 05:47:55;;;;;;;29.17;22.30;;;1.40;81.50;;;;;;5036119;28;20178;-82
2021/12/22 05:50:23;;;;;;;28.93;23.07;;;1.50;81.40;;;;;;5042336;28;20217;-85
2021/12/22 05:52:49;;;;;;;29.37;22.13;;;1.50;82.30;;;;;;5052345;28;20177;-82
2021/12/22 05:55:15;;;;;;;28.67;20.47;;;1.50;81.90;;;;;;5057243;28;20201;-87
2021/12/22 05:58:18;;;;;;;27.10;20.37;;;1.50;81.70;;;;;;5057858;28;20165;-80
2021/12/22 06:00:49;;;;;;;29.00;21.23;;;1.40;82.10;;;;;;5054602;28;20199;-80
2021/12/22 06:10:08;;;;;;;29.87;19.07;;;1.70;79.60;;;;;;5052912;28;20184;-80
2021/12/22 06:12:52;;;;;;;26.20;17.80;;;1.80;75.80;;;;;;5048913;28;20196;-90
2021/12/22 06:16:00;;;;;;;22.07;16.97;;;1.80;73.70;;;;;;5040832;28;20255;-81
2021/12/22 06:18:26;;;;;;;21.53;16.90;;;1.80;73.50;;;;;;5039415;28;20188;-88
2021/12/22 06:20:52;;;;;;;21.90;16.00;;;1.80;73.80;;;;;;5038237;28;20182;-82
2021/12/22 06:23:18;;;;;;;22.23;14.97;;;2.00;73.30;;;;;;5038795;28;20174;-82
2021/12/22 06:25:44;;;;;;;22.97;15.23;;;1.90;68.10;;;;;;5039237;28;20186;-81
2021/12/22 06:28:10;;;;;;;20.23;15.13;;;2.00;68.70;;;;;;5039665;28;20208;-82
2021/12/22 06:30:36;;;;;;;19.00;13.53;;;2.00;66.60;;;;;;5041602;28;20158;-83
2021/12/22 06:33:02;;;;;;;16.53;11.90;;;1.90;64.30;;;;;;5038168;28;20300;-83
2021/12/22 06:35:28;;;;;;;19.27;12.17;;;1.70;61.30;;;;;;5037797;28;20209;-85
2021/12/22 06:37:54;;;;;;;19.97;13.70;;;1.60;63.00;;;;;;5039801;28;20162;-83
2021/12/22 06:40:20;;;;;;;15.80;12.47;;;1.90;65.00;;;;;;5037076;28;20177;-83
2021/12/22 06:42:46;;;;;;;17.93;12.60;;;1.90;62.10;;;;;;5037451;28;20162;-88
2021/12/22 06:45:14;;;;;;;19.27;12.80;;;2.20;61.50;;;;;;5058304;28;20189;-88
2021/12/22 06:47:41;;;;;;;20.43;13.83;;;2.10;57.30;;;;;;5041108;28;20256;-91
2021/12/22 06:50:08;;;;;;;20.33;12.97;;;2.30;55.70;;;;;;5039847;28;20513;-91
2021/12/22 06:52:35;;;;;;;22.17;15.93;;;2.40;50.40;;;;;;5057589;28;20197;-91
2021/12/22 06:55:05;;;;;;;21.17;15.20;;;2.50;47.60;;;;;;5049982;28;20197;-82
2021/12/22 06:57:32;;;;;;;21.07;15.80;;;2.60;44.70;;;;;;5060947;28;20189;-82
2021/12/22 06:59:58;;;;;;;21.23;16.40;;;2.60;43.10;;;;;;5049485;28;20181;-82
2021/12/22 07:02:26;;;;;;;22.17;15.60;;;2.60;41.80;;;;;;5044785;28;20169;-86
2021/12/22 07:04:54;;;;;;;22.90;15.77;;;2.60;41.20;;;;;;5038841;28;20176;-85
2021/12/22 07:07:24;;;;;;;21.67;14.77;;;2.50;41.10;;;;;;5039533;28;20181;-84
2021/12/22 07:09:50;;;;;;;22.40;14.50;;;2.50;45.90;;;;;;5059808;28;20204;-82
2021/12/22 07:12:15;;;;;;;23.23;14.47;;;2.50;46.10;;;;;;5038750;28;20163;-87
2021/12/22 07:14:41;;;;;;;18.90;14.07;;;2.60;46.40;;;;;;5039097;28;20568;-89
2021/12/22 07:17:08;;;;;;;22.87;15.20;;;2.50;46.50;;;;;;5052639;28;20161;-85
2021/12/22 07:19:36;;;;;;;17.87;13.53;;;2.40;47.00;;;;;;5059676;28;20190;-84
2021/12/22 07:22:02;;;;;;;16.53;12.23;;;2.40;47.60;;;;;;5048810;28;20181;-86
2021/12/22 07:24:28;;;;;;;16.37;9.93;;;2.40;46.90;;;;;;5038394;28;20181;-84
2021/12/22 07:26:57;;;;;;;15.43;9.30;;;2.40;45.50;;;;;;5046370;28;20205;-84
2021/12/22 07:29:24;;;;;;;15.20;10.60;;;2.30;40.20;;;;;;5053174;28;20169;-79
2021/12/22 07:31:50;;;;;;;13.67;9.17;;;2.40;40.00;;;;;;5069057;28;20169;-80
2021/12/22 07:34:34;;;;;;;14.83;10.73;;;2.80;35.60;;;;;;5043450;28;20197;-89
2021/12/22 07:37:23;;;;;;;14.63;9.17;;;2.60;31.80;;;;;;5055201;28;20165;-86
2021/12/22 07:39:51;;;;;;;14.07;8.70;;;2.50;29.60;;;;;;5054111;28;20227;-87
2021/12/22 07:42:20;;;;;;;13.77;7.70;;;2.40;28.90;;;;;;5046518;28;20174;-90
2021/12/22 07:44:49;;;;;;;13.83;6.93;;;2.30;27.40;;;;;;5042212;28;20249;-94
2021/12/22 07:47:16;;;;;;;10.93;7.20;;;2.30;21.80;;;;;;5043122;28;20173;-88
2021/12/22 07:49:42;;;;;;;11.63;7.27;;;2.20;17.30;;;;;;5041231;28;20193;-84
2021/12/22 07:52:08;;;;;;;12.27;6.83;;;2.30;15.00;;;;;;5054237;28;20198;-84
2021/12/22 07:54:52;;;;;;;11.47;7.73;;;2.40;14.70;;;;;;5054032;28;20212;-82
2021/12/22 07:57:22;;;;;;;12.83;6.83;;;2.70;13.00;;;;;;5051115;28;20185;-83
2021/12/22 07:59:48;;;;;;;10.50;6.97;;;2.70;8.60;;;;;;5049364;28;20177;-87
2021/12/22 08:02:19;;;;;;;9.83;6.77;;;2.60;6.90;;;;;;5048129;28;20186;-90
2021/12/22 08:05:06;;;;;;;9.57;6.87;;;2.90;3.80;;;;;;5051715;28;20166;-82
2021/12/22 08:07:32;;;;;;;10.70;6.90;;;2.80;1.00;;;;;;5057922;28;20154;-85
2021/12/22 08:09:59;;;;;;;12.77;7.53;;;3.00;1.00;;;;;;5054482;28;20242;-83
2021/12/22 08:12:28;;;;;;;11.10;7.50;;;2.90;1.00;;;;;;5048429;28;20241;-82
2021/12/22 08:15:06;;;;;;;11.30;7.13;;;2.80;1.00;;;;;;5055797;28;20210;-87
2021/12/22 08:17:32;;;;;;;11.80;7.33;;;2.90;1.00;;;;;;5054926;28;20169;-87
2021/12/22 08:20:04;;;;;;;10.50;7.17;;;3.00;1.00;;;;;;5022200;28;20186;-84
2021/12/22 08:22:31;;;;;;;13.03;7.73;;;3.10;1.00;;;;;;5021319;28;20235;-87
2021/12/22 08:24:57;;;;;;;12.07;7.70;;;3.10;1.00;;;;;;5050793;28;20215;-87
2021/12/22 08:27:27;;;;;;;10.80;7.90;;;3.10;1.00;;;;;;5051476;28;20158;-88
2021/12/22 08:29:56;;;;;;;11.13;6.93;;;3.10;1.00;;;;;;5049813;28;20615;-89
2021/12/22 08:32:26;;;;;;;13.00;7.70;;;3.20;1.00;;;;;;5043950;28;20165;-90
2021/12/22 08:38:50;;;;;;;11.30;7.77;;;3.20;1.00;;;;;;5038317;28;20289;-91
2021/12/22 08:41:12;;;;;;;14.80;8.73;;;3.40;1.00;;;;;;5046460;28;20173;-91
2021/12/22 08:43:37;;;;;;;12.53;8.43;;;3.40;1.00;;;;;;5049978;28;20166;-86
2021/12/22 08:46:04;;;;;;;13.17;8.57;;;3.40;1.00;;;;;;5057434;28;20212;-84
2021/12/22 08:48:31;;;;;;;14.23;8.37;;;3.40;1.00;;;;;;5056665;28;20169;-87
2021/12/22 08:51:05;;;;;;;10.83;7.53;;;3.30;1.00;;;;;;5054816;28;20170;-86
2021/12/22 08:53:35;;;;;;;10.93;8.10;;;3.40;1.00;;;;;;5049574;28;20203;-84
2021/12/22 08:56:14;;;;;;;14.67;9.17;;;3.50;1.00;;;;;;5040997;28;20201;-89
2021/12/22 08:59:15;;;;;;;11.67;7.40;;;3.60;1.00;;;;;;5040271;28;20189;-89
2021/12/22 09:01:42;;;;;;;9.97;6.70;;;3.50;1.00;;;;;;5041932;28;20168;-91
2021/12/22 09:04:08;;;;;;;14.47;7.70;;;3.60;1.00;;;;;;5036429;28;20189;-86
2021/12/22 09:06:34;;;;;;;13.23;7.67;;;3.60;1.00;;;;;;5034915;28;20174;-89
2021/12/22 09:09:00;;;;;;;14.43;8.53;;;3.60;1.00;;;;;;5042747;28;20181;-88
2021/12/22 09:11:27;;;;;;;12.80;7.43;;;3.70;1.00;;;;;;5042034;28;20189;-90
2021/12/22 09:13:53;;;;;;;13.53;8.63;;;3.70;1.00;;;;;;5035064;28;20200;-90
2021/12/22 09:16:18;;;;;;;12.47;7.77;;;3.80;1.00;;;;;;5038282;28;20177;-87
2021/12/22 09:18:44;;;;;;;11.50;7.73;;;3.90;1.00;;;;;;5036148;28;20638;-88
2021/12/22 09:21:13;;;;;;;12.70;7.93;;;3.70;1.00;;;;;;5036436;28;20227;-89
2021/12/22 09:23:40;;;;;;;10.83;7.47;;;3.60;1.00;;;;;;5039899;28;20174;-90
2021/12/22 09:26:07;;;;;;;11.87;6.80;;;3.60;1.00;;;;;;5055663;28;20189;-90
2021/12/22 09:28:35;;;;;;;10.80;7.10;;;3.50;1.00;;;;;;5038995;28;20192;-90
2021/12/22 09:31:02;;;;;;;10.53;7.07;;;3.70;1.00;;;;;;5041095;28;20178;-92
2021/12/22 09:33:28;;;;;;;11.33;8.23;;;3.60;1.00;;;;;;5040862;28;20192;-84
2021/12/22 09:35:56;;;;;;;12.40;8.00;;;3.50;1.00;;;;;;5046339;28;20181;-89
2021/12/22 09:38:23;;;;;;;11.87;7.30;;;3.60;1.00;;;;;;5039666;28;20162;-92
2021/12/22 09:40:50;;;;;;;11.23;7.27;;;3.60;1.00;;;;;;5039337;28;20188;-86
2021/12/22 09:43:17;;;;;;;11.67;7.60;;;3.90;1.00;;;;;;5036102;28;20666;-88
2021/12/22 09:45:47;;;;;;;12.70;8.00;;;4.10;1.00;;;;;;5037754;28;20182;-88
2021/12/22 09:52:16;;;;;;;15.27;10.17;;;4.30;1.00;;;;;;5058980;28;20189;-84
2021/12/22 09:53:52;;;;;;;13.40;8.10;;;4.40;1.00;;;;;;5046540;28;20557;-90
2021/12/22 09:56:30;;;;;;;16.63;9.80;;;4.30;1.00;;;;;;5033994;28;20215;-85
2021/12/22 09:58:57;;;;;;;12.13;7.93;;;4.40;1.00;;;;;;5042306;28;20284;-87
2021/12/22 10:01:25;;;;;;;10.27;7.13;;;4.50;1.00;;;;;;5041857;28;20177;-89
2021/12/22 10:03:58;;;;;;;11.13;7.80;;;4.60;1.00;;;;;;5047980;28;20188;-84
2021/12/22 10:06:24;;;;;;;11.37;7.07;;;4.70;1.00;;;;;;5058341;28;20185;-86
2021/12/22 10:09:00;;;;;;;9.67;7.30;;;4.70;1.00;;;;;;5043450;28;20213;-87
2021/12/22 10:11:44;;;;;;;11.20;7.23;;;4.70;1.00;;;;;;5040629;28;20185;-86
2021/12/22 10:14:24;;;;;;;11.90;7.30;;;4.70;1.00;;;;;;5040947;28;20216;-82
2021/12/22 10:16:54;;;;;;;12.03;7.40;;;4.70;1.00;;;;;;5039395;28;20181;-83
2021/12/22 10:19:26;;;;;;;14.33;7.23;;;4.90;1.00;;;;;;5028583;28;20189;-92
2021/12/22 10:22:00;;;;;;;17.70;7.60;;;4.90;1.00;;;;;;5039263;28;20158;-79
2021/12/22 10:24:41;;;;;;;11.03;6.93;;;5.20;1.00;;;;;;5056696;28;20208;-82
2021/12/22 10:27:20;;;;;;;13.93;7.17;;;5.30;1.00;;;;;;5040021;28;20647;-85
2021/12/22 10:29:46;;;;;;;8.83;6.67;;;5.50;1.00;;;;;;5040510;28;20146;-84
2021/12/22 10:32:14;;;;;;;8.97;6.77;;;5.50;1.00;;;;;;5040467;28;20230;-85
2021/12/22 10:35:01;;;;;;;9.90;6.97;;;5.60;1.00;;;;;;5056431;28;20233;-80
2021/12/22 10:37:38;;;;;;;11.90;7.43;;;5.70;1.00;;;;;;5040356;28;20261;-88
2021/12/22 10:40:24;;;;;;;13.23;7.00;;;5.70;99.90;;;;;;5038885;28;20163;-86
2021/12/22 10:42:52;;;;;;;11.33;6.67;;;5.80;99.90;;;;;;5039671;28;20159;-90
2021/12/22 10:45:19;;;;;;;10.33;6.70;;;5.80;99.90;;;;;;5056701;28;20167;-83
2021/12/22 10:50:41;;;;;;;11.83;7.17;;;5.90;99.90;;;;;;5048664;28;20172;-83
2021/12/22 10:53:09;;;;;;;12.03;7.10;;;6.00;99.90;;;;;;5059376;28;20204;-86
2021/12/22 10:55:52;;;;;;;11.43;7.60;;;6.10;99.90;;;;;;5058848;28;20196;-80
2021/12/22 10:58:22;;;;;;;10.67;7.03;;;6.00;99.90;;;;;;5059142;28;20153;-78
2021/12/22 11:01:17;;;;;;;9.03;6.77;;;5.70;99.90;;;;;;5058976;28;20158;-83
2021/12/22 11:03:47;;;;;;;10.37;6.20;;;5.60;99.90;;;;;;5052161;28;20157;-78
2021/12/22 11:06:27;;;;;;;11.13;6.57;;;5.60;99.90;;;;;;5057430;28;20169;-79
2021/12/22 11:09:10;;;;;;;9.77;6.20;;;5.60;73.90;;;;;;5052874;28;20674;-81
2021/12/22 11:11:44;;;;;;;10.83;6.20;;;5.50;89.40;;;;;;5073390;28;20154;-80
2021/12/22 11:14:27;;;;;;;11.73;6.93;;;5.50;1.00;;;;;;5058503;28;20228;-86
2021/12/22 11:16:55;;;;;;;12.13;7.07;;;5.70;3.70;;;;;;5034195;28;20205;-90
2021/12/22 11:19:27;;;;;;;12.33;7.43;;;5.70;99.90;;;;;;5051398;28;20166;-84
2021/12/22 11:22:13;;;;;;;11.97;6.70;;;5.70;99.90;;;;;;5068813;28;20174;-87
2021/12/22 11:28:04;;;;;;;10.87;6.37;;;5.70;27.40;;;;;;5046355;28;20204;-92
2021/12/22 11:30:44;;;;;;;12.67;7.77;;;5.70;99.90;;;;;;5045878;28;20193;-88
2021/12/22 11:33:27;;;;;;;9.63;7.30;;;5.70;99.90;;;;;;5045608;28;20166;-88
2021/12/22 11:35:58;;;;;;;9.93;7.57;;;5.70;99.90;;;;;;5047650;28;20177;-93
2021/12/22 11:38:30;;;;;;;12.07;7.50;;;5.80;62.50;;;;;;5048660;28;20165;-88
2021/12/22 11:41:17;;;;;;;8.90;7.13;;;5.70;79.00;;;;;;5046764;28;20166;-89
2021/12/22 11:44:34;;;;;;;10.10;7.77;;;5.70;93.90;;;;;;5048140;28;20177;-91
2021/12/22 11:47:25;;;;;;;11.43;7.27;;;5.50;99.90;;;;;;5046126;28;20177;-90
2021/12/22 11:49:56;;;;;;;9.60;6.83;;;5.40;99.90;;;;;;5052707;28;20185;-90
2021/12/22 11:52:37;;;;;;;11.60;7.00;;;5.40;99.90;;;;;;5050778;28;20193;-93
2021/12/22 11:55:16;;;;;;;10.67;7.63;;;5.40;99.90;;;;;;5048932;28;20209;-87
2021/12/22 11:57:51;;;;;;;11.40;8.20;;;5.60;99.90;;;;;;5047087;28;20162;-87
2021/12/22 12:00:29;;;;;;;12.50;7.50;;;5.50;99.90;;;;;;5047266;28;20174;-92
2021/12/22 12:03:20;;;;;;;10.03;7.30;;;5.40;99.90;;;;;;5050387;28;20185;-91
2021/12/22 12:06:10;;;;;;;11.80;7.53;;;5.40;99.90;;;;;;5048367;28;20182;-84
2021/12/22 12:09:08;;;;;;;10.67;6.67;;;5.40;99.90;;;;;;5065179;28;20182;-85
2021/12/22 12:11:55;;;;;;;12.07;7.37;;;5.20;24.10;;;;;;5047066;28;20166;-87
2021/12/22 12:23:32;;;;;;;9.87;6.70;;;5.80;4.70;;;;;;5048457;28;20217;-91
2021/12/22 12:26:29;;;;;;;13.33;7.30;;;5.80;1.00;;;;;;5063361;28;20173;-84
2021/12/22 12:28:55;;;;;;;10.93;6.73;;;5.80;1.00;;;;;;5048248;28;20185;-85
2021/12/22 12:31:40;;;;;;;11.53;8.23;;;5.90;1.00;;;;;;5067633;28;20192;-87
2021/12/22 12:34:23;;;;;;;9.50;7.43;;;6.10;1.00;;;;;;5048377;28;20213;-91
2021/12/22 12:36:49;;;;;;;13.50;7.97;;;6.20;1.00;;;;;;5048078;28;20173;-91
2021/12/22 12:39:14;;;;;;;10.77;7.80;;;6.20;1.00;;;;;;5062132;28;20170;-89
2021/12/22 12:41:59;;;;;;;12.00;7.77;;;6.10;1.00;;;;;;5045983;28;20186;-92
2021/12/22 12:44:29;;;;;;;11.27;7.87;;;6.50;1.00;;;;;;5045055;28;20177;-92
2021/12/22 12:46:55;;;;;;;13.17;8.07;;;6.60;99.90;;;;;;5044249;28;20174;-87
2021/12/22 12:49:21;;;;;;;15.57;8.90;;;6.80;1.00;;;;;;5048514;28;20169;-93
2021/12/22 12:51:49;;;;;;;11.50;8.03;;;7.00;99.90;;;;;;5051011;28;20181;-93
2021/12/22 12:54:18;;;;;;;12.37;7.60;;;6.70;99.90;;;;;;5053732;28;20221;-90
2021/12/22 12:56:48;;;;;;;13.10;7.70;;;6.30;1.00;;;;;;5051175;28;20181;-90
2021/12/22 12:59:27;;;;;;;10.23;7.40;;;6.20;99.90;;;;;;5053002;28;20212;-85
2021/12/22 13:01:58;;;;;;;11.17;8.03;;;6.20;1.00;;;;;;5069191;28;20181;-92
2021/12/22 13:04:28;;;;;;;11.50;7.90;;;6.30;1.00;;;;;;5052349;28;20154;-88
2021/12/22 13:07:14;;;;;;;15.57;8.20;;;6.70;1.00;;;;;;5050334;28;20170;-89
2021/12/22 13:09:46;;;;;;;11.77;7.43;;;6.80;1.00;;;;;;5045834;28;20237;-90
2021/12/22 13:12:19;;;;;;;15.70;8.20;;;6.90;99.90;;;;;;5050268;28;20162;-85
2021/12/22 13:17:53;;;;;;;14.30;7.63;;;7.00;1.00;;;;;;5048978;28;20188;-84
2021/12/22 13:20:28;;;;;;;12.70;8.07;;;7.00;1.00;;;;;;5052386;28;20207;-86
2021/12/22 13:23:01;;;;;;;10.40;8.07;;;6.80;99.90;;;;;;5043692;28;20176;-91
2021/12/22 13:25:30;;;;;;;15.93;8.30;;;6.90;37.30;;;;;;5072644;28;20174;-88
2021/12/22 13:28:04;;;;;;;11.90;7.77;;;6.80;99.90;;;;;;5056745;28;20207;-81
2021/12/22 13:30:41;;;;;;;11.93;8.10;;;6.90;1.00;;;;;;5070177;28;20196;-92
2021/12/22 13:33:08;;;;;;;10.03;7.40;;;6.90;99.90;;;;;;5047380;28;20165;-92
2021/12/22 13:36:05;;;;;;;12.07;8.10;;;7.00;1.00;;;;;;5044354;28;20208;-90
2021/12/22 13:38:38;;;;;;;12.80;8.37;;;6.90;99.90;;;;;;5044219;28;20283;-94
2021/12/22 13:41:20;;;;;;;11.90;8.43;;;7.10;1.00;;;;;;5044327;28;20641;-93
2021/12/22 13:43:52;;;;;;;14.70;9.00;;;7.10;99.90;;;;;;5044434;28;20173;-90
2021/12/22 13:46:32;;;;;;;13.03;8.53;;;7.00;99.90;;;;;;5043723;28;20181;-88
2021/12/22 13:49:13;;;;;;;12.80;9.10;;;6.60;1.00;;;;;;5046164;28;20257;-91
2021/12/22 13:51:49;;;;;;;10.60;8.10;;;6.60;99.90;;;;;;5048312;28;20273;-87
2021/12/22 13:54:20;;;;;;;11.90;8.10;;;6.90;1.00;;;;;;5042167;28;20224;-90
2021/12/22 13:56:49;;;;;;;12.50;8.20;;;6.70;1.00;;;;;;5043648;28;20169;-89
2021/12/22 13:59:22;;;;;;;17.13;9.47;;;6.60;99.90;;;;;;5047927;28;20185;-88
2021/12/22 14:01:54;;;;;;;14.13;9.50;;;6.70;99.90;;;;;;5058276;28;20193;-92
2021/12/22 14:04:32;;;;;;;16.27;8.63;;;6.90;99.90;;;;;;5044022;28;20512;-80
2021/12/22 14:07:33;;;;;;;14.23;8.67;;;7.00;25.10;;;;;;5055764;28;20197;-81
2021/12/22 14:10:11;;;;;;;14.57;8.70;;;7.00;1.00;;;;;;5043345;28;20201;-80
2021/12/22 14:12:57;;;;;;;13.47;8.50;;;6.90;1.00;;;;;;5052693;28;20180;-78